Time;durP1;ratioP1;P1;durP2;ratioP2;P2;SDS_P1;SDS_P2;PMS_P1;PMS_P2;Temp;Humidity;BMP_temperature;BMP_pressure;BME280_temperature;BME280_humidity;BME280_pressure;Samples;Min_cycle;Max_cycle;Signal;HPM_P1;HPM_P2
2022/09/29 00:02:29;;;;;;;25.77;22.95;;;21.70;64.50;;;;;;4452353;58;21037;-26
2022/09/29 00:07:31;;;;;;;29.30;24.65;;;21.80;64.70;;;;;;4446354;58;21132;-30
2022/09/29 00:12:32;;;;;;;27.15;23.83;;;21.80;64.60;;;;;;4458168;59;21048;-31
2022/09/29 00:17:32;;;;;;;27.30;23.00;;;21.70;64.50;;;;;;4444396;58;21096;-27
2022/09/29 00:22:34;;;;;;;25.92;22.75;;;21.80;65.40;;;;;;4453806;59;21584;-34
2022/09/29 00:27:34;;;;;;;24.98;21.50;;;21.70;64.60;;;;;;4454923;58;21080;-36
2022/09/29 00:32:35;;;;;;;25.48;22.37;;;21.70;65.30;;;;;;4444494;58;21052;-27
2022/09/29 00:37:36;;;;;;;25.77;22.15;;;21.70;64.50;;;;;;4454270;58;21044;-30
2022/09/29 00:42:37;;;;;;;24.85;21.30;;;21.70;64.50;;;;;;4443553;58;21048;-30
2022/09/29 00:47:44;;;;;;;23.83;21.20;;;21.70;65.10;;;;;;4444412;58;21175;-30
2022/09/29 00:52:53;;;;;;;25.20;21.35;;;21.70;64.50;;;;;;4440574;63;21084;-34
2022/09/29 00:58:12;;;;;;;24.37;21.75;;;21.70;64.50;;;;;;4473452;59;21117;-34
2022/09/29 01:03:16;;;;;;;26.33;21.40;;;21.70;64.50;;;;;;4443336;59;21044;-27
2022/09/29 01:08:35;;;;;;;24.17;21.52;;;21.70;64.50;;;;;;4450810;59;21036;-32
2022/09/29 01:13:38;;;;;;;22.92;20.33;;;21.70;64.40;;;;;;4441341;59;21573;-31
2022/09/29 01:18:39;;;;;;;24.58;21.33;;;21.70;64.50;;;;;;4440287;59;21044;-36
2022/09/29 01:25:43;;;;;;;22.98;20.15;;;21.70;64.50;;;;;;4463952;59;21083;-32
2022/09/29 01:36:01;;;;;;;23.25;20.23;;;21.70;64.40;;;;;;4439556;60;21602;-32
2022/09/29 01:41:16;;;;;;;24.67;21.10;;;21.70;64.40;;;;;;4452913;59;21028;-34
2022/09/29 01:46:34;;;;;;;21.35;18.85;;;21.70;64.40;;;;;;4446274;59;21141;-29
2022/09/29 01:51:58;;;;;;;21.55;19.17;;;21.70;64.40;;;;;;4452670;59;21104;-34
2022/09/29 01:57:14;;;;;;;23.92;19.55;;;21.70;64.40;;;;;;4480557;59;21075;-29
2022/09/29 02:02:25;;;;;;;21.42;18.98;;;21.70;64.30;;;;;;4443758;59;21098;-35
2022/09/29 02:07:42;;;;;;;21.25;18.95;;;21.70;64.30;;;;;;4452914;59;21072;-35
2022/09/29 02:12:43;;;;;;;;;;;21.70;64.30;;;;;;4454529;59;21029;-36
2022/09/29 02:17:47;;;;;;;21.85;19.17;;;21.70;64.30;;;;;;4441740;58;20114;-31
2022/09/29 02:22:48;;;;;;;19.90;17.75;;;21.70;64.30;;;;;;4447523;59;21041;-32
2022/09/29 02:27:49;;;;;;;22.10;17.92;;;21.70;64.30;;;;;;4447373;58;21093;-29
2022/09/29 02:32:50;;;;;;;21.52;18.90;;;21.70;64.30;;;;;;4450054;59;21503;-36
2022/09/29 02:38:11;;;;;;;21.37;18.02;;;21.70;64.50;;;;;;4451940;58;21057;-30
2022/09/29 02:45:01;;;;;;;19.85;16.50;;;21.70;64.30;;;;;;4441566;59;21056;-27
2022/09/29 02:51:10;;;;;;;19.70;17.60;;;21.70;64.30;;;;;;4443256;59;21585;-28
2022/09/29 02:56:36;;;;;;;20.95;17.25;;;21.70;64.30;;;;;;4450288;59;21151;-27
2022/09/29 03:01:49;;;;;;;18.80;16.80;;;21.70;64.30;;;;;;4447571;59;21051;-28
2022/09/29 03:06:51;;;;;;;19.83;16.83;;;21.70;64.30;;;;;;4466332;59;21521;-33
2022/09/29 03:11:52;;;;;;;18.02;16.12;;;21.70;64.30;;;;;;4451152;59;21124;-32
2022/09/29 03:16:52;;;;;;;19.65;17.50;;;21.70;64.20;;;;;;4446867;58;21109;-30
2022/09/29 03:21:53;;;;;;;19.05;16.48;;;21.70;64.20;;;;;;4442726;59;21056;-35
2022/09/29 03:26:54;;;;;;;17.95;15.80;;;21.70;64.20;;;;;;4449078;58;21574;-30
2022/09/29 03:31:55;;;;;;;19.25;15.70;;;21.70;64.70;;;;;;4438963;63;21685;-27
2022/09/29 03:36:56;;;;;;;19.70;16.12;;;21.70;64.30;;;;;;4457459;58;21124;-32
2022/09/29 03:41:57;;;;;;;19.40;15.77;;;21.70;64.30;;;;;;4477411;58;21744;-30
2022/09/29 03:46:59;;;;;;;18.62;15.98;;;21.70;64.40;;;;;;4453859;58;21108;-31
2022/09/29 03:52:01;;;;;;;17.95;15.65;;;21.70;64.30;;;;;;4445817;58;21566;-31
2022/09/29 03:57:01;;;;;;;17.85;15.63;;;21.70;64.20;;;;;;4454186;58;21578;-32
2022/09/29 04:02:02;;;;;;;17.25;15.15;;;21.70;64.30;;;;;;4444794;58;21120;-30
2022/09/29 04:07:03;;;;;;;17.52;14.68;;;21.70;64.20;;;;;;4440858;62;21647;-35
2022/09/29 04:12:04;;;;;;;16.20;14.50;;;21.70;64.30;;;;;;4447292;58;21064;-33
2022/09/29 04:17:05;;;;;;;16.85;14.73;;;21.70;64.30;;;;;;4445045;58;21088;-27
2022/09/29 04:22:06;;;;;;;15.65;13.98;;;21.70;64.30;;;;;;4440470;59;21060;-36
2022/09/29 04:27:07;;;;;;;15.73;13.60;;;21.70;64.30;;;;;;4455830;59;21092;-32
2022/09/29 04:32:07;;;;;;;15.68;13.65;;;21.70;64.40;;;;;;4439861;62;21072;-34
2022/09/29 04:37:12;;;;;;;15.93;14.25;;;21.70;64.30;;;;;;4444443;58;21060;-37
2022/09/29 04:42:13;;;;;;;15.45;13.30;;;21.70;64.40;;;;;;4452215;59;21112;-36
2022/09/29 04:47:14;;;;;;;15.75;14.05;;;21.70;64.40;;;;;;4440566;58;21180;-35
2022/09/29 04:52:15;;;;;;;17.15;14.20;;;21.70;64.40;;;;;;4452473;58;21541;-32
2022/09/29 04:57:16;;;;;;;14.75;13.23;;;21.70;64.40;;;;;;4443371;58;21521;-36
2022/09/29 05:02:18;;;;;;;16.25;14.20;;;21.70;64.40;;;;;;4480123;58;21116;-34
2022/09/29 05:07:19;;;;;;;14.52;13.02;;;21.70;64.40;;;;;;4499764;59;21538;-37
2022/09/29 05:12:20;;;;;;;13.77;12.32;;;21.60;64.30;;;;;;4469115;58;21105;-35
2022/09/29 05:17:20;;;;;;;15.48;13.10;;;21.60;64.30;;;;;;4439639;62;21626;-26
2022/09/29 05:22:23;;;;;;;16.33;12.68;;;21.70;64.40;;;;;;4444446;59;21036;-33
2022/09/29 05:27:24;;;;;;;16.15;13.02;;;21.60;64.20;;;;;;4454791;59;21561;-28
2022/09/29 05:32:25;;;;;;;14.05;12.55;;;21.60;64.20;;;;;;4443915;59;21144;-36
2022/09/29 05:37:26;;;;;;;15.25;12.57;;;21.70;64.30;;;;;;4440017;63;21056;-35
2022/09/29 05:42:26;;;;;;;15.93;12.95;;;21.60;64.20;;;;;;4447579;58;21048;-31
2022/09/29 05:47:27;;;;;;;14.45;11.73;;;21.60;64.20;;;;;;4439567;58;21096;-34
2022/09/29 05:52:28;;;;;;;13.98;12.35;;;21.60;64.20;;;;;;4455629;59;21185;-33
2022/09/29 05:57:29;;;;;;;14.60;12.95;;;21.60;64.20;;;;;;4445481;59;21622;-37
2022/09/29 06:02:30;;;;;;;14.40;12.90;;;21.60;64.30;;;;;;4451440;58;21053;-27
2022/09/29 06:07:31;;;;;;;15.55;13.25;;;21.60;64.20;;;;;;4441783;58;21617;-33
2022/09/29 06:12:36;;;;;;;15.50;12.60;;;21.60;64.60;;;;;;4455941;58;21113;-30
2022/09/29 06:17:37;;;;;;;14.02;12.15;;;21.70;64.30;;;;;;4491513;59;21088;-36
2022/09/29 06:22:38;;;;;;;14.18;11.93;;;21.60;64.20;;;;;;4440228;63;21089;-37
2022/09/29 06:27:39;;;;;;;18.37;12.88;;;21.70;64.30;;;;;;4447857;58;21068;-34
2022/09/29 06:32:40;;;;;;;14.98;12.73;;;21.60;64.70;;;;;;4440360;58;21108;-34
2022/09/29 06:37:45;;;;;;;15.15;13.55;;;21.70;64.30;;;;;;4448930;58;21120;-31
2022/09/29 06:42:46;;;;;;;19.83;15.52;;;21.70;64.10;;;;;;4437765;63;21713;-29
2022/09/29 06:47:46;;;;;;;17.98;14.45;;;21.70;64.20;;;;;;4439547;58;21140;-35
2022/09/29 06:52:49;;;;;;;20.50;15.50;;;21.80;64.30;;;;;;4445648;58;21108;-28
2022/09/29 06:57:49;;;;;;;20.88;16.40;;;21.80;64.40;;;;;;4486594;58;21558;-34
2022/09/29 07:02:53;;;;;;;23.08;18.30;;;21.80;65.00;;;;;;4456710;59;21081;-27
2022/09/29 07:07:54;;;;;;;23.20;18.00;;;21.80;64.30;;;;;;4439865;62;21056;-36
2022/09/29 07:12:57;;;;;;;24.70;19.52;;;21.90;64.40;;;;;;4440433;62;21096;-27
2022/09/29 07:17:59;;;;;;;26.83;20.30;;;21.90;64.40;;;;;;4452775;58;21589;-26
2022/09/29 07:23:00;;;;;;;27.75;21.12;;;21.90;64.30;;;;;;4440408;63;21587;-34
2022/09/29 07:28:01;;;;;;;31.92;22.73;;;21.90;64.40;;;;;;4457503;58;21117;-27
2022/09/29 07:33:02;;;;;;;33.47;23.90;;;22.00;64.40;;;;;;4446341;58;21048;-27
2022/09/29 07:38:03;;;;;;;38.38;24.63;;;22.00;64.40;;;;;;4440820;63;21669;-30
2022/09/29 07:43:04;;;;;;;35.63;25.15;;;22.00;64.50;;;;;;4452562;58;21036;-28
2022/09/29 07:48:05;;;;;;;39.58;27.52;;;22.00;64.40;;;;;;4441082;58;21095;-28
2022/09/29 07:53:05;;;;;;;46.10;28.95;;;22.00;64.40;;;;;;4444116;58;21538;-27
2022/09/29 07:58:07;;;;;;;48.85;32.47;;;22.00;64.50;;;;;;4465093;58;21072;-28
2022/09/29 08:03:09;;;;;;;65.03;37.92;;;22.10;65.10;;;;;;4473272;59;21534;-27
2022/09/29 08:08:10;;;;;;;72.25;47.30;;;22.10;63.90;;;;;;4458925;59;21068;-33
2022/09/29 08:13:11;;;;;;;84.03;48.90;;;22.00;64.10;;;;;;4456162;58;21060;-28
2022/09/29 08:18:12;;;;;;;99.45;57.78;;;22.00;64.10;;;;;;4447936;58;21052;-31
2022/09/29 08:23:12;;;;;;;97.10;61.08;;;22.00;64.10;;;;;;4468928;58;21576;-28
2022/09/29 08:28:16;;;;;;;101.80;64.70;;;22.10;64.30;;;;;;4441140;58;21557;-30
2022/09/29 08:33:17;;;;;;;93.65;60.35;;;22.10;64.50;;;;;;4454551;58;21152;-32
2022/09/29 08:38:18;;;;;;;124.28;76.28;;;22.10;64.80;;;;;;4443383;58;21529;-32
2022/09/29 08:43:29;;;;;;;190.05;117.37;;;22.20;65.10;;;;;;4451493;58;21115;-30
2022/09/29 08:48:35;;;;;;;226.05;142.55;;;22.20;65.10;;;;;;4438908;63;21581;-31
2022/09/29 08:53:44;;;;;;;237.65;151.57;;;22.20;65.30;;;;;;4442622;59;21032;-29
2022/09/29 08:58:45;;;;;;;255.43;151.73;;;22.20;65.20;;;;;;4446393;59;21064;-33
2022/09/29 09:05:19;;;;;;;251.23;151.40;;;22.30;65.20;;;;;;4440764;63;21064;-34
2022/09/29 09:17:20;;;;;;;255.50;148.00;;;22.30;65.10;;;;;;4445791;59;21112;-31
2022/09/29 09:23:19;;;;;;;215.65;126.90;;;22.30;64.80;;;;;;4444549;59;21601;-28
2022/09/29 09:28:33;;;;;;;192.62;116.37;;;22.40;64.70;;;;;;4459996;59;21075;-31
2022/09/29 09:34:36;;;;;;;190.85;111.35;;;22.40;64.40;;;;;;4458182;59;21064;-30
2022/09/29 09:40:30;;;;;;;161.62;101.43;;;22.40;64.30;;;;;;4473944;59;21101;-29
2022/09/29 09:45:38;;;;;;;157.55;99.00;;;22.40;64.30;;;;;;4455329;59;21076;-28
2022/09/29 09:50:41;;;;;;;;;;;22.40;64.20;;;;;;4442839;63;21084;-30
2022/09/29 09:55:43;;;;;;;141.68;85.10;;;22.50;63.90;;;;;;4451040;58;20751;-30
2022/09/29 10:00:57;;;;;;;124.75;75.60;;;22.50;63.80;;;;;;4463403;59;21076;-32
2022/09/29 10:05:59;;;;;;;111.18;66.57;;;22.50;63.70;;;;;;4444188;59;21068;-35
2022/09/29 10:11:00;;;;;;;101.97;65.78;;;22.50;63.20;;;;;;4437862;63;21088;-28
2022/09/29 10:16:16;;;;;;;93.47;59.30;;;22.50;63.40;;;;;;4445062;59;21052;-28
2022/09/29 10:21:54;;;;;;;84.82;55.90;;;22.50;63.30;;;;;;4440895;59;21144;-29
2022/09/29 10:26:58;;;;;;;80.40;53.63;;;22.50;63.20;;;;;;4444857;59;21097;-28
2022/09/29 10:32:37;;;;;;;85.12;52.03;;;22.50;63.10;;;;;;4442253;59;21135;-29
2022/09/29 10:37:41;;;;;;;78.12;49.17;;;22.50;62.90;;;;;;4458205;59;21167;-29
2022/09/29 10:42:49;;;;;;;78.50;50.88;;;22.50;62.80;;;;;;4449489;59;21127;-32
2022/09/29 10:48:24;;;;;;;85.55;51.35;;;22.50;62.80;;;;;;4446196;59;21627;-30
2022/09/29 10:53:37;;;;;;;80.00;49.40;;;22.60;62.80;;;;;;4465732;59;21642;-35
2022/09/29 10:58:44;;;;;;;86.95;51.47;;;22.60;62.90;;;;;;4446950;59;21522;-26
2022/09/29 11:04:02;;;;;;;82.93;49.83;;;22.60;62.90;;;;;;4479407;59;21107;-28
2022/09/29 11:09:06;;;;;;;88.57;51.30;;;22.70;63.10;;;;;;4440334;59;21527;-33
2022/09/29 11:14:30;;;;;;;104.85;56.67;;;22.60;63.60;;;;;;4475134;59;21570;-28
2022/09/29 11:19:32;;;;;;;98.97;56.92;;;22.70;62.60;;;;;;4496368;59;21116;-28
2022/09/29 11:26:12;;;;;;;101.47;56.45;;;22.80;62.60;;;;;;4451739;59;21093;-28
2022/09/29 11:38:48;;;;;;;100.80;60.33;;;22.70;62.60;;;;;;4447052;59;21047;-30
2022/09/29 11:44:07;;;;;;;100.00;61.30;;;22.80;62.00;;;;;;4457104;59;21534;-27
2022/09/29 11:49:31;;;;;;;108.75;63.85;;;22.80;62.00;;;;;;4440226;59;21105;-28
2022/09/29 11:57:38;;;;;;;103.65;63.03;;;22.90;61.80;;;;;;4472936;59;21072;-36
2022/09/29 12:03:15;;;;;;;98.18;59.67;;;22.80;61.20;;;;;;4450007;59;21534;-29
2022/09/29 12:09:01;;;;;;;90.95;58.75;;;22.80;61.70;;;;;;4440084;59;21104;-29
2022/09/29 12:16:01;;;;;;;87.00;57.72;;;22.80;61.90;;;;;;4476780;59;21590;-29
2022/09/29 12:21:03;;;;;;;95.30;59.42;;;22.70;62.00;;;;;;4469301;59;22044;-29
2022/09/29 12:26:09;;;;;;;88.30;58.05;;;22.70;62.10;;;;;;4449758;59;21072;-31
2022/09/29 12:31:58;;;;;;;84.95;55.63;;;22.70;62.20;;;;;;4439306;63;21629;-29
2022/09/29 12:37:32;;;;;;;85.65;58.35;;;22.70;62.20;;;;;;4440379;63;21021;-31
2022/09/29 12:43:06;;;;;;;90.03;58.55;;;22.60;62.10;;;;;;4449339;59;21052;-29
2022/09/29 12:48:42;;;;;;;83.80;57.92;;;22.70;62.20;;;;;;4446161;59;21562;-29
2022/09/29 12:55:18;;;;;;;91.37;61.85;;;22.70;62.50;;;;;;4497583;59;21067;-28
2022/09/29 13:00:19;;;;;;;;;;;22.80;62.30;;;;;;4455505;59;21036;-31
2022/09/29 13:08:18;;;;;;;95.00;66.90;;;22.80;62.30;;;;;;4440129;59;20122;-28
2022/09/29 13:17:05;;;;;;;94.00;66.50;;;22.80;62.20;;;;;;4453368;59;21748;-31
2022/09/29 13:22:44;;;;;;;87.62;63.17;;;22.80;62.00;;;;;;4444211;59;21098;-28
2022/09/29 13:27:48;;;;;;;87.25;61.88;;;22.80;61.90;;;;;;4465593;59;21112;-27
2022/09/29 13:33:24;;;;;;;88.82;61.70;;;22.90;61.50;;;;;;4439561;59;21567;-27
2022/09/29 13:38:29;;;;;;;85.03;61.43;;;22.80;61.50;;;;;;4466575;59;21166;-29
2022/09/29 13:48:42;;;;;;;82.18;59.40;;;22.80;61.50;;;;;;4441231;59;21408;-26
2022/09/29 13:53:43;;;;;;;79.50;57.78;;;22.80;61.50;;;;;;4458992;59;21100;-28
2022/09/29 13:59:02;;;;;;;82.68;55.75;;;22.80;61.40;;;;;;4479347;59;21429;-29
2022/09/29 14:06:14;;;;;;;80.97;56.55;;;22.80;61.30;;;;;;4454952;58;21580;-28
2022/09/29 14:11:53;;;;;;;79.07;54.58;;;22.80;62.20;;;;;;4442790;59;21558;-30
2022/09/29 14:17:04;;;;;;;81.20;55.08;;;22.80;62.50;;;;;;4439406;63;21106;-31
2022/09/29 14:22:51;;;;;;;81.90;54.92;;;22.80;62.30;;;;;;4439761;59;21598;-35
2022/09/29 14:28:18;;;;;;;85.55;54.60;;;22.70;62.40;;;;;;4442545;59;21052;-31
2022/09/29 14:33:27;;;;;;;70.65;51.42;;;22.70;62.60;;;;;;4450647;59;21085;-32
2022/09/29 14:38:50;;;;;;;75.12;52.90;;;22.60;62.70;;;;;;4462004;59;21119;-28
2022/09/29 14:43:56;;;;;;;72.35;49.72;;;22.60;62.80;;;;;;4440143;63;21101;-30
2022/09/29 14:58:02;;;;;;;70.53;51.45;;;22.50;63.40;;;;;;4439897;59;21620;-32
2022/09/29 15:03:07;;;;;;;70.12;49.78;;;22.50;63.20;;;;;;4468461;59;21581;-27
2022/09/29 15:08:27;;;;;;;71.22;51.47;;;22.50;63.30;;;;;;4440304;63;21072;-28
2022/09/29 15:13:30;;;;;;;66.43;48.83;;;22.40;63.30;;;;;;4442225;59;21089;-32
2022/09/29 15:22:00;;;;;;;68.57;49.58;;;22.50;63.40;;;;;;4440048;59;21067;-28
2022/09/29 15:27:08;;;;;;;66.25;48.00;;;22.40;63.50;;;;;;4448283;59;21090;-30
2022/09/29 15:32:30;;;;;;;66.57;48.45;;;22.40;63.60;;;;;;4449532;59;21593;-33
2022/09/29 15:37:56;;;;;;;67.87;49.72;;;22.40;63.60;;;;;;4457661;59;21486;-33
2022/09/29 15:42:57;;;;;;;65.20;47.83;;;22.40;63.70;;;;;;4452842;59;21164;-30
2022/09/29 15:48:05;;;;;;;67.35;48.55;;;22.40;63.70;;;;;;4458621;59;21072;-30
2022/09/29 15:53:07;;;;;;;63.87;48.22;;;22.40;63.70;;;;;;4464716;59;21100;-31
2022/09/29 16:05:01;;;;;;;65.55;48.87;;;22.40;63.80;;;;;;4469903;59;21052;-30
2022/09/29 16:10:22;;;;;;;63.53;46.40;;;22.40;64.00;;;;;;4449457;59;21106;-31
2022/09/29 16:15:48;;;;;;;61.72;47.13;;;22.40;63.90;;;;;;4442889;59;21060;-36
2022/09/29 16:20:49;;;;;;;65.83;47.13;;;22.30;64.00;;;;;;4456396;59;21304;-32
2022/09/29 16:29:30;;;;;;;62.15;47.05;;;22.30;63.90;;;;;;4447587;59;21550;-27
2022/09/29 16:34:32;;;;;;;63.97;48.00;;;22.40;64.00;;;;;;4461179;59;21944;-32
2022/09/29 16:39:43;;;;;;;59.95;45.88;;;22.30;64.00;;;;;;4444576;59;21123;-30
2022/09/29 16:44:44;;;;;;;61.40;45.72;;;22.30;64.00;;;;;;4456849;59;21085;-30
2022/09/29 16:49:57;;;;;;;59.28;45.80;;;22.30;64.00;;;;;;4453619;59;21053;-39
2022/09/29 16:55:26;;;;;;;59.70;44.38;;;22.30;64.10;;;;;;4445096;59;21097;-34
2022/09/29 17:00:27;;;;;;;64.05;45.90;;;22.30;64.10;;;;;;4452554;59;21592;-31
2022/09/29 17:05:28;;;;;;;56.25;44.15;;;22.30;64.10;;;;;;4458097;59;21080;-30
2022/09/29 17:10:30;;;;;;;58.28;44.35;;;22.30;64.80;;;;;;4439583;63;21045;-29
2022/09/29 17:15:31;;;;;;;58.03;44.75;;;22.30;64.20;;;;;;4461288;59;21088;-33
2022/09/29 17:20:32;;;;;;;58.60;44.92;;;22.30;64.20;;;;;;4459052;58;21060;-27
2022/09/29 17:25:33;;;;;;;57.50;43.78;;;22.30;64.20;;;;;;4453249;59;21565;-31
2022/09/29 17:30:34;;;;;;;54.97;44.42;;;22.30;64.20;;;;;;4448958;59;21073;-32
2022/09/29 17:35:41;;;;;;;57.03;43.70;;;22.30;64.30;;;;;;4457519;58;21045;-30
2022/09/29 17:41:02;;;;;;;53.08;42.38;;;22.30;64.30;;;;;;4445847;59;21108;-27
2022/09/29 17:46:05;;;;;;;52.50;41.80;;;22.30;64.30;;;;;;4458430;59;21180;-29
2022/09/29 17:51:11;;;;;;;54.30;42.83;;;22.30;64.30;;;;;;4439765;59;22375;-33
2022/09/29 17:56:36;;;;;;;53.40;42.95;;;22.30;64.30;;;;;;4439458;63;21143;-30
2022/09/29 18:01:37;;;;;;;52.62;42.53;;;22.30;64.30;;;;;;4442629;59;21541;-27
2022/09/29 18:06:38;;;;;;;52.62;41.45;;;22.30;64.30;;;;;;4443834;58;21490;-27
2022/09/29 18:11:42;;;;;;;49.63;41.72;;;22.30;64.30;;;;;;4439442;63;21118;-35
2022/09/29 18:16:42;;;;;;;53.53;42.58;;;22.30;64.40;;;;;;4439704;63;21052;-30
2022/09/29 18:21:44;;;;;;;55.78;43.67;;;22.30;64.40;;;;;;4448496;58;21059;-30
2022/09/29 18:26:45;;;;;;;51.35;40.97;;;22.30;64.40;;;;;;4455113;58;21530;-30
2022/09/29 18:31:46;;;;;;;51.20;42.08;;;22.20;64.40;;;;;;4444860;58;21049;-33
2022/09/29 18:36:47;;;;;;;51.83;41.97;;;22.20;64.40;;;;;;4440024;62;21160;-29
2022/09/29 18:41:48;;;;;;;53.13;42.45;;;22.30;64.50;;;;;;4439629;63;21088;-27
2022/09/29 18:46:48;;;;;;;51.95;41.70;;;22.20;64.40;;;;;;4448077;58;21116;-30
2022/09/29 18:51:51;;;;;;;50.25;41.88;;;22.20;64.50;;;;;;4439433;58;21052;-29
2022/09/29 18:56:52;;;;;;;55.83;42.45;;;22.20;64.40;;;;;;4440212;63;21538;-29
2022/09/29 19:01:53;;;;;;;52.85;41.58;;;22.20;64.50;;;;;;4439861;59;21092;-29
2022/09/29 19:06:53;;;;;;;50.00;41.05;;;22.20;64.60;;;;;;4443421;58;21084;-31
2022/09/29 19:11:54;;;;;;;54.08;41.92;;;22.20;64.50;;;;;;4439290;62;21096;-34
2022/09/29 19:16:55;;;;;;;50.50;40.40;;;22.20;64.50;;;;;;4440263;62;21052;-31
2022/09/29 19:21:56;;;;;;;49.03;39.75;;;22.20;64.50;;;;;;4459398;58;21036;-31
2022/09/29 19:26:58;;;;;;;48.85;39.38;;;22.20;64.50;;;;;;4440102;59;21048;-28
2022/09/29 19:31:59;;;;;;;48.53;40.30;;;22.20;64.50;;;;;;4443796;58;21032;-27
2022/09/29 19:37:01;;;;;;;50.12;41.00;;;22.20;64.50;;;;;;4440478;59;21391;-30
2022/09/29 19:42:02;;;;;;;51.05;41.03;;;22.20;64.50;;;;;;4440157;59;21518;-30
2022/09/29 19:47:07;;;;;;;48.80;39.65;;;22.20;64.50;;;;;;4452814;58;21156;-27
2022/09/29 19:52:08;;;;;;;46.53;39.00;;;22.20;64.50;;;;;;4516601;59;21594;-30
2022/09/29 19:57:13;;;;;;;48.20;38.75;;;22.20;64.50;;;;;;4457861;59;21128;-28
2022/09/29 20:02:16;;;;;;;47.20;37.78;;;22.10;65.10;;;;;;4440288;63;21562;-28
2022/09/29 20:07:17;;;;;;;47.50;37.92;;;22.20;64.50;;;;;;4442906;59;21172;-28
2022/09/29 20:12:18;;;;;;;48.00;37.70;;;22.10;64.50;;;;;;4447321;59;21368;-31
2022/09/29 20:17:19;;;;;;;47.95;38.30;;;22.20;64.50;;;;;;4445403;59;21502;-32
2022/09/29 20:22:22;;;;;;;47.33;37.00;;;22.10;64.50;;;;;;4450601;59;21605;-32
2022/09/29 20:27:23;;;;;;;44.97;36.83;;;22.20;64.50;;;;;;4467949;58;21592;-31
2022/09/29 20:32:24;;;;;;;46.75;37.80;;;22.10;64.50;;;;;;4441915;58;21104;-31
2022/09/29 20:37:26;;;;;;;45.22;36.08;;;22.20;64.60;;;;;;4442721;59;21049;-26
2022/09/29 20:42:28;;;;;;;43.13;36.03;;;22.20;64.50;;;;;;4477672;58;21060;-31
2022/09/29 20:47:29;;;;;;;44.05;35.90;;;22.10;64.50;;;;;;4474059;58;21141;-31
2022/09/29 20:52:29;;;;;;;42.88;35.85;;;22.20;64.50;;;;;;4451605;58;21064;-29
2022/09/29 20:57:31;;;;;;;43.50;35.00;;;22.20;64.50;;;;;;4463143;59;21108;-27
2022/09/29 21:02:35;;;;;;;43.10;35.10;;;22.20;64.50;;;;;;4459213;58;21107;-26
2022/09/29 21:07:36;;;;;;;43.25;34.85;;;22.20;64.40;;;;;;4461328;58;21084;-26
2022/09/29 21:12:38;;;;;;;43.45;34.45;;;22.20;64.40;;;;;;4455721;58;21650;-26
2022/09/29 21:17:39;;;;;;;39.45;33.40;;;22.20;64.40;;;;;;4457664;58;21579;-30
2022/09/29 21:22:40;;;;;;;40.12;32.72;;;22.20;64.40;;;;;;4457957;58;21505;-31
2022/09/29 21:27:43;;;;;;;40.55;32.83;;;22.10;64.90;;;;;;4490672;58;21092;-29
2022/09/29 21:32:44;;;;;;;42.30;32.58;;;22.20;64.40;;;;;;4439809;63;21080;-33
2022/09/29 21:37:45;;;;;;;39.10;31.70;;;22.10;64.40;;;;;;4440350;62;21092;-27
2022/09/29 21:42:46;;;;;;;40.35;32.88;;;22.10;64.30;;;;;;4460952;58;21128;-33
2022/09/29 21:53:06;;;;;;;36.13;30.27;;;22.10;64.30;;;;;;4440182;63;21068;-32
2022/09/29 21:58:09;;;;;;;35.75;30.62;;;22.10;64.40;;;;;;4461993;58;21599;-27
2022/09/29 22:03:09;;;;;;;37.53;30.58;;;22.10;64.40;;;;;;4450676;59;21590;-29
2022/09/29 22:08:10;;;;;;;37.97;32.03;;;22.10;64.40;;;;;;4450105;58;21112;-32
2022/09/29 22:13:11;;;;;;;35.60;29.98;;;22.10;64.50;;;;;;4451052;58;21036;-32
2022/09/29 22:18:12;;;;;;;37.13;30.48;;;22.10;64.40;;;;;;4472554;58;21580;-31
2022/09/29 22:23:13;;;;;;;33.17;28.00;;;22.10;64.50;;;;;;4440430;59;21080;-31
2022/09/29 22:28:14;;;;;;;35.90;29.63;;;22.10;64.50;;;;;;4445200;58;21089;-27
2022/09/29 22:33:16;;;;;;;35.88;29.40;;;22.10;64.40;;;;;;4449602;58;21594;-31
2022/09/29 22:38:17;;;;;;;34.63;28.60;;;22.10;64.40;;;;;;4450706;59;21071;-28
2022/09/29 22:43:20;;;;;;;33.63;27.27;;;22.10;64.40;;;;;;4444028;58;21526;-27
2022/09/29 22:48:21;;;;;;;33.25;28.30;;;22.10;64.40;;;;;;4439107;63;21667;-29
2022/09/29 22:53:22;;;;;;;32.78;28.23;;;22.10;64.40;;;;;;4451466;58;21052;-30
2022/09/29 22:58:24;;;;;;;33.85;28.00;;;22.10;64.40;;;;;;4444148;58;21101;-31
2022/09/29 23:03:25;;;;;;;33.83;27.10;;;22.10;64.40;;;;;;4460697;59;21108;-32
2022/09/29 23:08:27;;;;;;;30.65;25.77;;;22.10;64.40;;;;;;4439752;62;21075;-30
2022/09/29 23:13:29;;;;;;;31.67;27.25;;;22.10;64.30;;;;;;4475103;59;21602;-30
2022/09/29 23:18:31;;;;;;;28.38;24.95;;;22.10;64.40;;;;;;4452370;59;21044;-29
2022/09/29 23:23:32;;;;;;;28.98;25.83;;;22.10;64.30;;;;;;4462453;58;21587;-32
2022/09/29 23:28:33;;;;;;;30.27;25.12;;;22.10;64.30;;;;;;4485806;59;21109;-34
2022/09/29 23:33:34;;;;;;;28.00;24.20;;;22.10;64.30;;;;;;4462477;58;21056;-29
2022/09/29 23:43:59;;;;;;;27.92;24.73;;;22.10;64.30;;;;;;4470398;59;21192;-32
2022/09/29 23:49:01;;;;;;;28.20;23.70;;;22.10;64.30;;;;;;4452830;59;21068;-30
2022/09/29 23:54:03;;;;;;;28.62;24.63;;;22.00;64.20;;;;;;4450934;59;21033;-32
2022/09/29 23:59:06;;;;;;;28.90;24.25;;;22.10;64.30;;;;;;4440622;63;21753;-32
